createdAt,value
2018-02-08T00:02:44.203Z,19.37
2018-02-08T00:06:46.739Z,18.73
2018-02-08T00:10:49.290Z,18.00
2018-02-08T00:14:51.805Z,17.37
2018-02-08T00:18:54.336Z,18.10
2018-02-08T00:22:57.647Z,18.63
2018-02-08T00:27:15.774Z,19.27
2018-02-08T00:31:18.285Z,18.27
2018-02-08T00:35:21.590Z,21.63
2018-02-08T00:39:24.110Z,18.47
2018-02-08T00:43:26.658Z,20.17
2018-02-08T00:47:29.942Z,17.73
2018-02-08T00:51:32.486Z,21.17
2018-02-08T00:55:35.008Z,20.30
2018-02-08T00:59:37.543Z,18.97
2018-02-08T01:03:40.073Z,19.20
2018-02-08T01:07:42.614Z,18.47
2018-02-08T01:11:45.157Z,17.77
2018-02-08T01:15:47.710Z,17.70
2018-02-08T01:19:50.321Z,18.40
2018-02-08T01:23:52.862Z,17.40
2018-02-08T01:27:55.379Z,16.60
2018-02-08T01:31:57.936Z,16.07
2018-02-08T01:36:00.497Z,17.07
2018-02-08T01:40:03.043Z,16.77
2018-02-08T01:44:05.565Z,15.43
2018-02-08T01:48:08.882Z,15.93
2018-02-08T01:52:11.405Z,15.67
2018-02-08T01:56:13.986Z,15.43
2018-02-08T02:00:16.496Z,16.37
2018-02-08T02:04:19.048Z,16.30
2018-02-08T02:08:21.605Z,15.80
2018-02-08T02:12:24.144Z,16.20
2018-02-08T02:16:26.669Z,14.47
2018-02-08T02:20:29.969Z,14.80
2018-02-08T02:24:33.245Z,15.17
2018-02-08T02:28:35.795Z,14.57
2018-02-08T02:32:38.320Z,15.60
2018-02-08T02:36:40.852Z,15.30
2018-02-08T02:40:43.368Z,15.53
2018-02-08T02:44:45.892Z,15.87
2018-02-08T02:48:48.424Z,16.07
2018-02-08T02:52:51.276Z,15.20
2018-02-08T02:56:54.555Z,16.60
2018-02-08T03:00:57.108Z,16.63
2018-02-08T03:04:59.629Z,15.93
2018-02-08T03:09:02.178Z,16.03
2018-02-08T03:13:04.696Z,15.87
2018-02-08T03:17:07.254Z,15.73
2018-02-08T03:21:10.490Z,15.67
2018-02-08T03:25:13.063Z,14.50
2018-02-08T03:29:15.600Z,15.77
2018-02-08T03:33:18.893Z,15.50
2018-02-08T03:37:22.194Z,14.90
2018-02-08T03:41:25.492Z,14.77
2018-02-08T03:45:27.999Z,15.87
2018-02-08T03:49:30.532Z,15.10
2018-02-08T03:53:33.063Z,15.30
2018-02-08T03:57:36.686Z,15.20
2018-02-08T04:01:39.202Z,15.67
2018-02-08T04:05:41.740Z,15.57
2018-02-08T04:09:45.024Z,15.97
2018-02-08T04:13:47.558Z,16.00
2018-02-08T04:17:50.133Z,17.73
2018-02-08T04:21:52.671Z,17.73
2018-02-08T04:25:55.188Z,16.50
2018-02-08T04:29:58.551Z,17.90
2018-02-08T04:34:01.080Z,18.30
2018-02-08T04:38:04.391Z,17.93
2018-02-08T04:42:19.521Z,18.10
2018-02-08T04:50:59.649Z,17.63
2018-02-08T04:55:02.167Z,17.57
2018-02-08T04:59:04.699Z,17.93
2018-02-08T05:03:07.234Z,18.43
2018-02-08T05:07:09.770Z,17.63
2018-02-08T05:11:12.291Z,19.13
2018-02-08T05:15:15.578Z,17.87
2018-02-08T05:19:18.141Z,20.30
2018-02-08T05:23:20.675Z,19.73
2018-02-08T05:27:23.207Z,19.90
2018-02-08T05:31:25.741Z,20.57
2018-02-08T05:35:29.038Z,19.13
2018-02-08T05:39:32.337Z,19.33
2018-02-08T05:43:35.624Z,20.03
2018-02-08T05:47:38.164Z,20.83
2018-02-08T05:51:40.678Z,20.27
2018-02-08T05:55:43.520Z,21.93
2018-02-08T05:59:46.041Z,20.83
2018-02-08T06:03:48.586Z,21.20
2018-02-08T06:07:52.011Z,20.70
2018-02-08T06:11:54.531Z,21.57
2018-02-08T06:15:57.065Z,20.43
2018-02-08T06:20:00.333Z,22.03
2018-02-08T06:24:02.885Z,21.23
2018-02-08T06:28:05.392Z,20.80
2018-02-08T06:32:07.927Z,21.43
2018-02-08T06:36:11.206Z,22.73
2018-02-08T06:40:13.752Z,21.97
2018-02-08T06:44:16.288Z,28.37
2018-02-08T06:48:19.588Z,25.43
2018-02-08T06:52:22.101Z,25.60
2018-02-08T06:56:24.635Z,20.60
2018-02-08T07:00:27.152Z,20.27
2018-02-08T07:04:30.452Z,21.87
2018-02-08T07:08:32.970Z,21.80
2018-02-08T07:12:35.508Z,21.00
2018-02-08T07:16:38.004Z,19.80
2018-02-08T07:20:40.546Z,22.00
2018-02-08T07:24:43.074Z,21.23
2018-02-08T07:28:45.606Z,19.97
2018-02-08T07:32:48.121Z,21.33
2018-02-08T07:36:50.647Z,22.93
2018-02-08T07:40:53.946Z,21.00
2018-02-08T07:44:57.277Z,21.27
2018-02-08T07:48:59.804Z,22.37
2018-02-08T07:53:02.345Z,19.20
2018-02-08T07:57:04.855Z,21.30
2018-02-08T08:01:07.379Z,22.27
2018-02-08T08:05:09.888Z,21.30
2018-02-08T08:09:13.196Z,19.77
2018-02-08T08:13:15.729Z,19.47
2018-02-08T08:17:18.406Z,19.10
2018-02-08T08:21:20.920Z,20.17
2018-02-08T08:25:23.454Z,21.37
2018-02-08T08:29:25.974Z,19.90
2018-02-08T08:33:28.502Z,20.33
2018-02-08T08:37:32.676Z,20.93
2018-02-08T08:41:35.195Z,21.67
2018-02-08T08:45:37.748Z,19.40
2018-02-08T08:49:40.350Z,18.00
2018-02-08T08:53:42.863Z,20.13
2018-02-08T08:57:45.401Z,18.67
2018-02-08T09:01:47.904Z,19.60
2018-02-08T09:05:50.458Z,19.60
2018-02-08T09:09:52.972Z,19.83
2018-02-08T09:13:55.501Z,19.57
2018-02-08T09:17:58.794Z,19.90
2018-02-08T09:22:02.846Z,20.07
2018-02-08T09:26:05.355Z,19.60
2018-02-08T09:30:07.899Z,20.43
2018-02-08T09:34:11.184Z,19.33
2018-02-08T09:38:13.756Z,20.80
2018-02-08T09:42:16.376Z,20.40
2018-02-08T09:46:18.924Z,20.67
2018-02-08T09:50:21.438Z,20.93
2018-02-08T09:54:23.967Z,20.43
2018-02-08T09:58:26.476Z,19.70
2018-02-08T10:02:29.004Z,19.63
2018-02-08T10:06:32.279Z,19.63
2018-02-08T10:10:34.830Z,20.10
2018-02-08T10:14:37.333Z,19.73
2018-02-08T10:18:39.861Z,19.53
2018-02-08T10:22:43.159Z,19.70
2018-02-08T10:26:45.771Z,19.77
2018-02-08T10:30:48.294Z,19.23
2018-02-08T10:34:50.845Z,18.97
2018-02-08T10:38:53.368Z,18.43
2018-02-08T10:42:55.910Z,19.20
2018-02-08T10:46:58.472Z,17.67
2018-02-08T10:51:01.114Z,17.93
2018-02-08T10:55:03.621Z,19.30
2018-02-08T10:59:06.159Z,19.97
2018-02-08T11:03:08.693Z,19.97
2018-02-08T11:07:11.257Z,18.90
2018-02-08T11:11:13.822Z,18.20
2018-02-08T11:15:16.331Z,17.13
2018-02-08T11:19:18.851Z,16.80
2018-02-08T11:23:21.385Z,15.83
2018-02-08T11:27:23.918Z,16.57
2018-02-08T11:31:26.443Z,16.37
2018-02-08T11:35:29.750Z,16.40
2018-02-08T11:39:32.286Z,14.93
2018-02-08T11:43:34.876Z,15.80
2018-02-08T11:47:37.383Z,15.17
2018-02-08T11:51:39.945Z,14.47
2018-02-08T11:55:42.476Z,13.70
2018-02-08T11:59:45.775Z,14.37
2018-02-08T12:03:49.038Z,13.83
2018-02-08T12:07:51.617Z,13.67
2018-02-08T12:11:54.129Z,13.77
2018-02-08T12:15:57.264Z,12.27
2018-02-08T12:19:59.790Z,13.20
2018-02-08T12:24:02.316Z,12.80
2018-02-08T12:28:05.620Z,13.13
2018-02-08T12:32:08.923Z,13.60
2018-02-08T12:36:12.228Z,13.43
2018-02-08T12:40:14.761Z,12.97
2018-02-08T12:44:17.264Z,12.37
2018-02-08T12:48:19.834Z,13.70
2018-02-08T12:52:22.350Z,13.93
2018-02-08T12:56:24.885Z,13.97
2018-02-08T13:00:27.405Z,14.97
2018-02-08T13:04:29.949Z,14.40
2018-02-08T13:08:32.473Z,15.30
2018-02-08T13:12:35.035Z,15.93
2018-02-08T13:16:37.757Z,16.57
2018-02-08T13:20:40.305Z,15.97
2018-02-08T13:24:42.841Z,16.30
2018-02-08T13:28:45.403Z,15.17
2018-02-08T13:32:47.939Z,15.60
2018-02-08T13:36:51.360Z,16.77
2018-02-08T13:40:54.789Z,18.03
2018-02-08T13:44:57.327Z,16.50
2018-02-08T13:49:00.401Z,17.57
2018-02-08T13:53:08.596Z,18.13
2018-02-08T13:57:16.851Z,19.10
2018-02-08T14:01:19.812Z,19.47
2018-02-08T14:05:22.346Z,21.67
2018-02-08T14:09:24.888Z,20.60
2018-02-08T14:13:27.394Z,20.83
2018-02-08T14:17:29.929Z,21.50
2018-02-08T14:21:32.475Z,22.30
2018-02-08T14:25:35.007Z,20.63
2018-02-08T14:29:37.530Z,21.30
2018-02-08T14:33:40.077Z,20.77
2018-02-08T14:37:42.628Z,19.30
2018-02-08T14:41:45.151Z,18.77
2018-02-08T14:45:47.684Z,18.87
2018-02-08T14:49:50.243Z,18.60
2018-02-08T14:53:53.268Z,18.90
2018-02-08T14:57:55.794Z,18.03
2018-02-08T15:01:59.084Z,17.43
2018-02-08T15:06:02.368Z,19.27
2018-02-08T15:10:04.903Z,20.63
2018-02-08T15:14:07.435Z,20.50
2018-02-08T15:18:09.982Z,20.77
2018-02-08T15:22:12.504Z,21.47
2018-02-08T15:26:15.074Z,19.87
2018-02-08T15:30:17.618Z,21.03
2018-02-08T15:34:20.916Z,20.30
2018-02-08T15:38:24.210Z,21.37
2018-02-08T15:42:26.750Z,22.37
2018-02-08T15:46:29.311Z,21.70
2018-02-08T15:50:31.849Z,21.87
2018-02-08T15:54:34.366Z,24.00
2018-02-08T15:58:37.669Z,22.90
2018-02-08T16:02:40.940Z,24.20
2018-02-08T16:06:43.477Z,23.90
2018-02-08T16:10:45.998Z,24.20
2018-02-08T16:14:48.563Z,24.23
2018-02-08T16:18:51.102Z,23.53
2018-02-08T16:22:53.644Z,23.17
2018-02-08T16:26:56.163Z,23.17
2018-02-08T16:30:58.790Z,23.97
2018-02-08T16:35:01.308Z,24.03
2018-02-08T16:39:03.866Z,25.57
2018-02-08T16:43:06.394Z,25.37
2018-02-08T16:47:09.243Z,25.90
2018-02-08T16:51:11.789Z,26.67
2018-02-08T16:55:14.613Z,26.60
2018-02-08T16:59:17.885Z,26.80
2018-02-08T17:03:20.416Z,25.77
2018-02-08T17:07:22.965Z,27.33
2018-02-08T17:11:25.515Z,27.17
2018-02-08T17:15:28.099Z,27.27
2018-02-08T17:19:30.659Z,26.70
2018-02-08T17:23:33.202Z,29.07
2018-02-08T17:27:36.032Z,29.83
2018-02-08T17:31:38.805Z,28.20
2018-02-08T17:35:42.533Z,29.07
2018-02-08T17:39:45.874Z,28.40
2018-02-08T17:43:48.672Z,29.93
2018-02-08T17:47:51.179Z,29.73
2018-02-08T17:51:53.728Z,30.10
2018-02-08T17:55:56.264Z,29.63
2018-02-08T17:59:58.815Z,30.60
2018-02-08T18:04:01.356Z,31.47
2018-02-08T18:08:04.664Z,29.53
2018-02-08T18:12:07.246Z,28.77
2018-02-08T18:16:10.559Z,31.23
2018-02-08T18:20:13.076Z,28.70
2018-02-08T18:24:15.607Z,31.30
2018-02-08T18:28:18.405Z,32.17
2018-02-08T18:32:21.692Z,32.03
2018-02-08T18:36:24.240Z,30.73
2018-02-08T18:40:26.776Z,30.77
2018-02-08T18:44:29.324Z,30.07
2018-02-08T18:48:31.926Z,31.20
2018-02-08T18:52:34.494Z,31.63
2018-02-08T18:56:37.039Z,30.10
2018-02-08T19:00:40.338Z,29.43
2018-02-08T19:04:43.622Z,30.70
2018-02-08T19:08:46.178Z,31.80
2018-02-08T19:12:49.041Z,31.53
2018-02-08T19:16:51.857Z,31.53
2018-02-08T19:20:54.518Z,30.10
2018-02-08T19:24:57.073Z,31.07
2018-02-08T19:28:59.605Z,32.63
2018-02-08T19:33:02.168Z,32.63
2018-02-08T19:37:05.472Z,33.30
2018-02-08T19:41:08.045Z,32.73
2018-02-08T19:45:11.343Z,31.53
2018-02-08T19:49:13.878Z,33.07
2018-02-08T19:53:16.441Z,31.73
2018-02-08T19:57:18.983Z,34.00
2018-02-08T20:01:21.510Z,33.33
2018-02-08T20:05:24.050Z,33.27
2018-02-08T20:09:26.586Z,33.87
2018-02-08T20:13:29.140Z,32.40
2018-02-08T20:17:31.816Z,32.97
2018-02-08T20:21:34.350Z,34.10
2018-02-08T20:25:40.461Z,33.57
2018-02-08T20:29:43.014Z,32.50
2018-02-08T20:33:45.528Z,34.80
2018-02-08T20:37:48.093Z,34.23
2018-02-08T20:41:50.635Z,36.40
2018-02-08T20:45:53.164Z,35.30
2018-02-08T20:50:01.324Z,35.90
2018-02-08T20:54:03.873Z,35.10
2018-02-08T20:58:06.394Z,37.17
2018-02-08T21:02:08.999Z,36.00
2018-02-08T21:06:12.001Z,38.50
2018-02-08T21:10:15.311Z,36.97
2018-02-08T21:14:18.622Z,35.40
2018-02-08T21:18:21.977Z,37.87
2018-02-08T21:22:24.513Z,38.20
2018-02-08T21:26:27.814Z,37.50
2018-02-08T21:30:31.104Z,38.27
2018-02-08T21:34:33.702Z,37.17
2018-02-08T21:38:37.004Z,37.10
2018-02-08T21:42:40.309Z,37.13
2018-02-08T21:46:43.632Z,37.90
2018-02-08T21:50:46.168Z,37.87
2018-02-08T21:54:48.717Z,39.10
2018-02-08T21:58:51.267Z,39.03
2018-02-08T22:02:54.547Z,38.90
2018-02-08T22:06:57.111Z,40.93
2018-02-08T22:10:59.617Z,40.43
2018-02-08T22:15:02.157Z,42.27
2018-02-08T22:19:04.680Z,41.23
2018-02-08T22:23:07.227Z,39.80
2018-02-08T22:27:09.748Z,38.63
2018-02-08T22:31:12.275Z,40.63
2018-02-08T22:35:15.666Z,40.13
2018-02-08T22:39:18.201Z,40.10
2018-02-08T22:43:20.802Z,40.97
2018-02-08T22:47:23.430Z,41.83
2018-02-08T22:51:26.390Z,42.23
2018-02-08T22:55:29.112Z,43.83
2018-02-08T22:59:31.736Z,43.00
2018-02-08T23:03:34.318Z,43.53
2018-02-08T23:07:37.647Z,43.47
2018-02-08T23:11:40.393Z,42.97
2018-02-08T23:15:43.745Z,42.97
2018-02-08T23:19:46.341Z,44.83
2018-02-08T23:23:49.240Z,44.30
2018-02-08T23:27:51.856Z,44.57
2018-02-08T23:31:54.413Z,44.33
2018-02-08T23:35:56.967Z,43.33
2018-02-08T23:40:00.104Z,44.90
2018-02-08T23:44:03.400Z,43.90
2018-02-08T23:48:06.154Z,44.00
2018-02-08T23:52:09.500Z,45.83
2018-02-08T23:56:12.097Z,45.77
